createdAt,value
2022-09-12T00:01:14.889Z,84.27
2022-09-12T00:04:17.196Z,83.74
2022-09-12T00:07:19.352Z,84.14
2022-09-12T00:10:21.790Z,84.48
2022-09-12T00:13:23.961Z,83.77
2022-09-12T00:16:28.756Z,83.78
2022-09-12T00:19:31.155Z,83.71
2022-09-12T00:22:33.768Z,83.51
2022-09-12T00:25:42.253Z,84.14
2022-09-12T00:28:45.178Z,84.34
2022-09-12T00:31:48.302Z,85.32
2022-09-12T00:34:50.643Z,84.77
2022-09-12T00:37:52.780Z,85.56
2022-09-12T00:40:55.029Z,84.88
2022-09-12T00:44:02.576Z,85.21
2022-09-12T00:47:26.984Z,86.17
2022-09-12T00:50:29.628Z,86.91
2022-09-12T00:53:32.045Z,87.22
2022-09-12T00:56:35.559Z,87.43
2022-09-12T00:59:46.339Z,87.66
2022-09-12T01:03:04.305Z,88.25
2022-09-12T01:06:15.621Z,87.93
2022-09-12T01:09:21.834Z,88.27
2022-09-12T01:12:24.497Z,88.34
2022-09-12T01:15:27.174Z,88.53
2022-09-12T01:19:02.640Z,88.51
2022-09-12T01:22:37.113Z,88.77
2022-09-12T01:25:42.279Z,88.81
2022-09-12T01:29:03.869Z,88.78
2022-09-12T01:32:14.925Z,88.59
2022-09-12T01:35:41.514Z,88.70
2022-09-12T01:38:59.293Z,88.82
2022-09-12T01:42:24.705Z,88.96
2022-09-12T01:45:33.824Z,89.01
2022-09-12T01:48:41.154Z,88.99
2022-09-12T01:51:53.584Z,89.20
2022-09-12T01:54:58.027Z,89.12
2022-09-12T01:58:19.681Z,89.47
2022-09-12T02:01:29.728Z,89.33
2022-09-12T02:04:57.566Z,89.68
2022-09-12T02:08:14.400Z,89.72
2022-09-12T02:11:16.771Z,89.72
2022-09-12T02:14:25.593Z,90.12
2022-09-12T02:17:30.804Z,89.67
2022-09-12T02:20:49.128Z,89.52
2022-09-12T02:23:58.402Z,89.55
2022-09-12T02:27:08.130Z,89.59
2022-09-12T02:30:14.346Z,89.51
2022-09-12T02:33:50.578Z,89.91
2022-09-12T02:37:24.401Z,90.07
2022-09-12T02:40:26.710Z,90.12
2022-09-12T02:43:29.027Z,90.13
2022-09-12T02:46:40.910Z,90.27
2022-09-12T02:49:44.095Z,90.28
2022-09-12T02:52:46.658Z,90.53
2022-09-12T02:55:48.944Z,90.66
2022-09-12T02:58:52.072Z,90.70
2022-09-12T03:02:20.974Z,90.87
2022-09-12T03:05:31.548Z,90.78
2022-09-12T03:08:45.974Z,90.60
2022-09-12T03:11:54.077Z,90.93
2022-09-12T03:15:02.304Z,90.90
2022-09-12T03:18:22.824Z,90.89
2022-09-12T03:21:45.496Z,90.95
2022-09-12T03:24:50.257Z,91.03
2022-09-12T03:28:06.186Z,91.17
2022-09-12T03:31:15.963Z,91.46
2022-09-12T03:34:18.927Z,91.56
2022-09-12T03:37:21.067Z,91.22
2022-09-12T03:40:23.478Z,91.41
2022-09-12T03:43:25.644Z,91.42
2022-09-12T03:46:27.920Z,91.75
2022-09-12T03:49:30.053Z,92.08
2022-09-12T03:52:32.441Z,91.85
2022-09-12T03:55:34.608Z,92.07
2022-09-12T03:58:37.752Z,92.06
2022-09-12T04:01:41.459Z,92.00
2022-09-12T04:04:44.375Z,91.90
2022-09-12T04:07:46.555Z,91.91
2022-09-12T04:10:48.763Z,92.02
2022-09-12T04:13:51.102Z,92.73
2022-09-12T04:16:53.527Z,92.27
2022-09-12T04:19:57.863Z,91.68
2022-09-12T04:23:00.081Z,92.55
2022-09-12T04:26:03.472Z,91.74
2022-09-12T04:29:05.718Z,91.38
2022-09-12T04:32:07.969Z,92.07
2022-09-12T04:35:12.301Z,90.82
2022-09-12T04:38:14.669Z,90.49
2022-09-12T04:41:31.429Z,90.56
2022-09-12T04:44:33.656Z,89.93
2022-09-12T04:47:36.002Z,88.89
2022-09-12T04:50:38.176Z,88.12
2022-09-12T04:53:41.107Z,88.02
2022-09-12T04:56:48.757Z,87.54
2022-09-12T04:59:51.085Z,86.86
2022-09-12T05:02:53.328Z,86.57
2022-09-12T05:05:56.579Z,86.49
2022-09-12T05:08:59.889Z,86.59
2022-09-12T05:12:04.967Z,86.47
2022-09-12T05:15:08.187Z,85.56
2022-09-12T05:18:10.435Z,85.17
2022-09-12T05:21:15.799Z,84.75
2022-09-12T05:24:27.129Z,84.11
2022-09-12T05:27:33.676Z,84.76
2022-09-12T05:30:35.918Z,84.35
2022-09-12T05:33:42.869Z,83.18
2022-09-12T05:36:46.351Z,83.23
2022-09-12T05:39:48.723Z,82.54
2022-09-12T05:42:51.019Z,83.07
2022-09-12T05:45:53.440Z,82.10
2022-09-12T05:48:57.117Z,81.30
2022-09-12T05:52:00.571Z,79.76
2022-09-12T05:55:03.707Z,79.44
2022-09-12T05:58:13.272Z,79.34
2022-09-12T06:01:25.083Z,78.82
2022-09-12T06:04:30.244Z,78.12
2022-09-12T06:07:34.075Z,77.31
2022-09-12T06:10:37.679Z,76.43
2022-09-12T06:13:42.688Z,75.86
2022-09-12T06:16:58.183Z,74.90
2022-09-12T06:20:14.344Z,73.74
2022-09-12T06:23:54.461Z,72.46
2022-09-12T06:27:00.528Z,71.14
2022-09-12T06:30:04.948Z,69.51
2022-09-12T06:33:08.397Z,69.14
2022-09-12T06:36:19.662Z,68.81
2022-09-12T06:39:35.145Z,67.06
2022-09-12T06:42:37.348Z,66.24
2022-09-12T06:45:40.305Z,64.55
2022-09-12T06:48:42.780Z,63.53
2022-09-12T06:51:45.303Z,63.65
2022-09-12T06:54:50.380Z,62.53
2022-09-12T06:57:58.601Z,62.27
2022-09-12T07:01:09.552Z,61.64
2022-09-12T07:04:14.837Z,61.14
2022-09-12T07:07:21.358Z,60.24
2022-09-12T07:10:34.972Z,59.19
2022-09-12T07:13:39.469Z,58.06
2022-09-12T07:16:42.498Z,57.38
2022-09-12T07:19:54.171Z,57.60
2022-09-12T07:23:03.431Z,56.35
2022-09-12T07:26:17.318Z,55.33
2022-09-12T07:29:41.352Z,53.64
2022-09-12T07:32:45.401Z,53.46
2022-09-12T07:35:48.320Z,52.10
2022-09-12T07:38:58.433Z,52.11
2022-09-12T07:42:00.591Z,52.43
2022-09-12T07:45:02.948Z,52.18
2022-09-12T07:48:07.308Z,50.95
2022-09-12T07:51:11.275Z,51.51
2022-09-12T07:54:13.467Z,53.07
2022-09-12T07:57:17.842Z,53.63
2022-09-12T08:00:20.381Z,53.63
2022-09-12T08:03:23.274Z,54.91
2022-09-12T08:06:28.695Z,54.46
2022-09-12T08:09:31.198Z,55.31
2022-09-12T08:12:34.619Z,54.68
2022-09-12T08:15:36.979Z,56.89
2022-09-12T08:18:40.457Z,56.88
2022-09-12T08:21:43.316Z,56.49
2022-09-12T08:24:46.620Z,57.31
2022-09-12T08:27:51.585Z,58.26
2022-09-12T08:30:54.589Z,59.24
2022-09-12T08:33:58.920Z,59.62
2022-09-12T08:37:04.520Z,58.57
2022-09-12T08:40:08.504Z,57.07
2022-09-12T08:43:31.703Z,55.82
2022-09-12T08:47:14.278Z,53.76
2022-09-12T08:50:20.760Z,52.95
2022-09-12T08:53:25.623Z,51.13
2022-09-12T08:56:31.883Z,50.11
2022-09-12T08:59:46.345Z,47.43
2022-09-12T09:03:07.139Z,45.37
2022-09-12T09:06:42.003Z,47.50
2022-09-12T09:10:08.275Z,47.51
2022-09-12T09:14:17.802Z,46.57
2022-09-12T09:17:31.436Z,45.96
2022-09-12T09:20:44.392Z,49.58
2022-09-12T09:23:53.823Z,47.91
2022-09-12T09:27:23.545Z,49.13
2022-09-12T09:30:35.361Z,49.94
2022-09-12T09:33:37.922Z,49.24
2022-09-12T09:36:50.998Z,51.26
2022-09-12T09:40:14.808Z,52.27
2022-09-12T09:43:24.595Z,52.18
2022-09-12T09:46:27.768Z,50.35
2022-09-12T09:49:33.368Z,51.32
2022-09-12T09:52:39.801Z,50.28
2022-09-12T09:55:57.291Z,50.86
2022-09-12T09:59:42.166Z,50.94
2022-09-12T10:03:08.245Z,49.39
2022-09-12T10:06:30.482Z,46.98
2022-09-12T10:09:38.844Z,47.09
2022-09-12T10:12:44.522Z,45.99
2022-09-12T10:16:05.413Z,45.94
2022-09-12T10:19:41.891Z,46.36
2022-09-12T10:22:48.813Z,45.94
2022-09-12T10:25:57.821Z,45.15
2022-09-12T10:29:16.946Z,44.78
2022-09-12T10:32:30.635Z,45.48
2022-09-12T10:35:45.168Z,43.76
2022-09-12T10:38:59.911Z,45.13
2022-09-12T10:42:03.758Z,43.09
2022-09-12T10:45:17.563Z,44.09
2022-09-12T10:48:37.983Z,39.11
2022-09-12T10:51:42.275Z,36.19
2022-09-12T10:54:45.958Z,34.27
2022-09-12T10:58:25.173Z,36.41
2022-09-12T11:01:45.261Z,37.18
2022-09-12T11:05:22.938Z,34.37
2022-09-12T11:08:40.068Z,33.10
2022-09-12T11:12:02.213Z,37.48
2022-09-12T11:15:26.903Z,39.70
2022-09-12T11:19:10.476Z,42.88
2022-09-12T11:22:43.714Z,45.42
2022-09-12T11:26:16.539Z,45.07
2022-09-12T11:29:52.291Z,45.51
2022-09-12T11:33:32.784Z,45.46
2022-09-12T11:36:47.117Z,38.11
2022-09-12T11:39:55.587Z,34.61
2022-09-12T11:43:06.363Z,33.18
2022-09-12T11:46:18.508Z,31.24
2022-09-12T11:49:47.329Z,30.62
2022-09-12T11:52:51.253Z,34.40
2022-09-12T11:55:56.107Z,37.40
2022-09-12T11:59:10.423Z,39.19
2022-09-12T12:02:28.275Z,42.39
2022-09-12T12:06:01.332Z,43.05
2022-09-12T12:09:05.056Z,44.19
2022-09-12T12:12:11.513Z,45.70
2022-09-12T12:15:16.310Z,46.91
2022-09-12T12:18:25.992Z,47.42
2022-09-12T12:21:37.978Z,49.09
2022-09-12T12:25:09.117Z,48.90
2022-09-12T12:28:11.550Z,48.53
2022-09-12T12:31:13.822Z,45.63
2022-09-12T12:34:36.570Z,43.07
2022-09-12T12:37:41.591Z,37.60
2022-09-12T12:40:43.788Z,35.98
2022-09-12T12:43:56.126Z,34.20
2022-09-12T12:47:15.642Z,37.42
2022-09-12T12:50:19.570Z,36.36
2022-09-12T12:53:27.873Z,38.71
2022-09-12T12:56:34.831Z,41.00
2022-09-12T12:59:37.374Z,39.95
2022-09-12T13:03:07.005Z,41.96
2022-09-12T13:06:25.773Z,43.30
2022-09-12T13:09:52.614Z,40.98
2022-09-12T13:12:57.799Z,42.87
2022-09-12T13:16:00.359Z,38.83
2022-09-12T13:19:06.435Z,36.41
2022-09-12T13:22:10.355Z,32.91
2022-09-12T13:25:29.336Z,32.54
2022-09-12T13:28:31.689Z,33.32
2022-09-12T13:31:34.107Z,36.67
2022-09-12T13:34:58.441Z,39.72
2022-09-12T13:38:24.550Z,42.44
2022-09-12T13:41:29.791Z,44.98
2022-09-12T13:44:42.606Z,46.06
2022-09-12T13:47:46.781Z,46.46
2022-09-12T13:51:01.589Z,47.12
2022-09-12T13:54:05.580Z,46.75
2022-09-12T13:57:27.189Z,46.37
2022-09-12T14:00:32.031Z,43.22
2022-09-12T14:04:00.356Z,42.13
2022-09-12T14:07:14.055Z,44.05
2022-09-12T14:10:21.696Z,46.30
2022-09-12T14:13:26.373Z,45.63
2022-09-12T14:16:31.156Z,47.34
2022-09-12T14:19:34.504Z,46.39
2022-09-12T14:22:38.838Z,47.07
2022-09-12T14:25:43.010Z,47.74
2022-09-12T14:28:49.723Z,47.97
2022-09-12T14:32:03.656Z,45.52
2022-09-12T14:35:07.088Z,44.05
2022-09-12T14:38:15.382Z,41.98
2022-09-12T14:41:36.732Z,44.20
2022-09-12T14:44:40.859Z,46.35
2022-09-12T14:47:47.832Z,42.49
2022-09-12T14:50:52.159Z,44.50
2022-09-12T14:53:54.786Z,46.15
2022-09-12T14:57:03.122Z,47.39
2022-09-12T15:00:11.972Z,48.14
2022-09-12T15:03:27.723Z,47.98
2022-09-12T15:06:32.685Z,48.77
2022-09-12T15:09:35.086Z,48.72
2022-09-12T15:12:37.259Z,47.28
2022-09-12T15:15:41.770Z,47.42
2022-09-12T15:18:44.030Z,45.27
2022-09-12T15:21:46.284Z,42.91
2022-09-12T15:24:48.637Z,42.34
2022-09-12T15:27:52.741Z,43.28
2022-09-12T15:30:56.480Z,43.14
2022-09-12T15:34:00.917Z,44.16
2022-09-12T15:37:05.640Z,44.24
2022-09-12T15:40:09.356Z,44.88
2022-09-12T15:43:13.537Z,45.21
2022-09-12T15:46:17.982Z,46.36
2022-09-12T15:49:20.180Z,46.86
2022-09-12T15:52:22.347Z,47.06
2022-09-12T15:55:29.198Z,48.16
2022-09-12T15:58:31.468Z,48.17
2022-09-12T16:01:33.717Z,48.94
2022-09-12T16:04:35.895Z,49.50
2022-09-12T16:07:38.073Z,49.54
2022-09-12T16:10:43.323Z,49.89
2022-09-12T16:13:45.569Z,50.41
2022-09-12T16:16:54.675Z,50.99
2022-09-12T16:19:59.720Z,51.84
2022-09-12T16:23:01.939Z,52.54
2022-09-12T16:26:06.102Z,53.12
2022-09-12T16:29:10.551Z,54.44
2022-09-12T16:32:12.703Z,53.27
2022-09-12T16:35:14.943Z,53.66
2022-09-12T16:38:20.553Z,54.15
2022-09-12T16:41:27.555Z,54.14
2022-09-12T16:44:29.728Z,55.04
2022-09-12T16:47:32.927Z,54.95
2022-09-12T16:50:35.236Z,54.52
2022-09-12T16:53:38.818Z,54.84
2022-09-12T16:56:41.477Z,55.27
2022-09-12T16:59:43.711Z,55.45
2022-09-12T17:02:45.956Z,56.06
2022-09-12T17:05:57.908Z,57.24
2022-09-12T17:09:03.354Z,58.83
2022-09-12T17:12:05.712Z,60.03
2022-09-12T17:15:08.515Z,60.61
2022-09-12T17:18:10.720Z,60.85
2022-09-12T17:21:13.960Z,64.51
2022-09-12T17:24:17.780Z,64.57
2022-09-12T17:27:20.269Z,69.44
2022-09-12T17:30:22.442Z,69.74
2022-09-12T17:33:25.664Z,69.97
2022-09-12T17:36:28.710Z,70.92
2022-09-12T17:39:30.872Z,69.25
2022-09-12T17:42:33.031Z,68.69
2022-09-12T17:45:35.265Z,68.27
2022-09-12T17:48:37.791Z,68.48
2022-09-12T17:51:40.660Z,70.10
2022-09-12T17:54:42.899Z,70.36
2022-09-12T17:57:45.362Z,69.16
2022-09-12T18:01:06.223Z,69.90
2022-09-12T18:04:08.721Z,71.99
2022-09-12T18:07:11.361Z,74.00
2022-09-12T18:10:13.800Z,76.02
2022-09-12T18:13:16.338Z,77.22
2022-09-12T18:16:18.550Z,76.25
2022-09-12T18:19:21.014Z,77.03
2022-09-12T18:22:23.195Z,76.79
2022-09-12T18:25:25.682Z,76.89
2022-09-12T18:28:28.364Z,75.89
2022-09-12T18:31:31.223Z,75.58
2022-09-12T18:34:33.453Z,76.82
2022-09-12T18:37:35.623Z,76.35
2022-09-12T18:40:37.836Z,76.76
2022-09-12T18:43:40.376Z,77.40
2022-09-12T18:46:42.650Z,76.77
2022-09-12T18:49:44.878Z,76.47
2022-09-12T18:52:47.039Z,78.07
2022-09-12T18:55:49.229Z,79.88
2022-09-12T18:58:55.134Z,79.84
2022-09-12T19:01:58.013Z,81.36
2022-09-12T19:05:00.336Z,83.51
2022-09-12T19:08:02.718Z,81.65
2022-09-12T19:11:06.184Z,82.28
2022-09-12T19:14:08.530Z,82.28
2022-09-12T19:17:10.897Z,82.36
2022-09-12T19:20:13.077Z,82.23
2022-09-12T19:23:15.239Z,82.29
2022-09-12T19:26:18.780Z,81.13
2022-09-12T19:29:21.011Z,79.37
2022-09-12T19:32:23.496Z,79.04
2022-09-12T19:35:25.679Z,80.91
2022-09-12T19:38:28.092Z,81.68
2022-09-12T19:41:30.603Z,80.45
2022-09-12T19:44:32.772Z,81.03
2022-09-12T19:47:34.924Z,82.55
2022-09-12T19:50:37.115Z,83.85
2022-09-12T19:53:39.581Z,84.26
2022-09-12T19:56:41.815Z,84.80
2022-09-12T19:59:45.142Z,85.37
2022-09-12T20:02:51.792Z,86.07
2022-09-12T20:05:53.938Z,87.26
2022-09-12T20:08:56.425Z,86.52
2022-09-12T20:11:58.631Z,85.55
2022-09-12T20:15:00.788Z,85.06
2022-09-12T20:18:03.040Z,85.13
2022-09-12T20:21:11.065Z,85.90
2022-09-12T20:24:15.740Z,86.27
2022-09-12T20:27:18.350Z,88.39
2022-09-12T20:30:20.527Z,89.74
2022-09-12T20:33:22.700Z,89.80
2022-09-12T20:36:25.755Z,89.03
2022-09-12T20:39:28.256Z,84.90
2022-09-12T20:42:30.437Z,84.03
2022-09-12T20:45:32.886Z,83.13
2022-09-12T20:48:35.443Z,84.06
2022-09-12T20:51:37.755Z,85.20
2022-09-12T20:54:39.912Z,85.41
2022-09-12T20:57:42.087Z,85.49
2022-09-12T21:00:44.258Z,85.40
2022-09-12T21:03:46.990Z,85.94
2022-09-12T21:06:49.299Z,85.94
2022-09-12T21:09:51.463Z,86.72
2022-09-12T21:13:00.292Z,86.36
2022-09-12T21:16:03.563Z,85.17
2022-09-12T21:19:12.275Z,85.83
2022-09-12T21:22:14.553Z,84.48
2022-09-12T21:25:16.717Z,86.22
2022-09-12T21:28:19.128Z,87.51
2022-09-12T21:31:22.020Z,89.00
2022-09-12T21:34:26.468Z,89.40
2022-09-12T21:37:28.693Z,89.40
2022-09-12T21:40:30.918Z,88.72
2022-09-12T21:43:33.167Z,88.64
2022-09-12T21:46:35.420Z,88.28
2022-09-12T21:49:37.612Z,87.56
2022-09-12T21:52:39.953Z,87.66
2022-09-12T21:55:42.302Z,87.48
2022-09-12T21:58:44.475Z,88.46
2022-09-12T22:01:47.024Z,88.46
2022-09-12T22:04:50.076Z,89.17
2022-09-12T22:07:52.703Z,90.44
2022-09-12T22:11:04.491Z,91.24
2022-09-12T22:14:06.645Z,90.70
2022-09-12T22:17:11.378Z,90.11
2022-09-12T22:20:13.540Z,89.35
2022-09-12T22:23:37.636Z,89.20
2022-09-12T22:26:44.643Z,88.17
2022-09-12T22:29:49.586Z,87.33
2022-09-12T22:32:51.819Z,87.73
2022-09-12T22:35:54.001Z,88.12
2022-09-12T22:38:57.212Z,88.53
2022-09-12T22:41:59.445Z,88.88
2022-09-12T22:45:01.811Z,88.62
2022-09-12T22:48:07.317Z,90.32
2022-09-12T22:51:12.015Z,91.27
2022-09-12T22:54:14.256Z,90.80
2022-09-12T22:57:16.799Z,90.27
2022-09-12T23:00:19.744Z,90.50
2022-09-12T23:03:22.390Z,90.32
2022-09-12T23:06:25.721Z,89.79
2022-09-12T23:09:30.967Z,89.62
2022-09-12T23:12:35.481Z,89.60
2022-09-12T23:15:37.829Z,89.42
2022-09-12T23:18:40.011Z,89.22
2022-09-12T23:21:42.213Z,89.71
2022-09-12T23:24:44.534Z,91.16
2022-09-12T23:27:47.117Z,91.14
2022-09-12T23:30:54.755Z,89.28
2022-09-12T23:33:58.798Z,92.58
2022-09-12T23:37:00.976Z,92.98
2022-09-12T23:40:03.927Z,92.76
2022-09-12T23:43:06.186Z,91.59
2022-09-12T23:46:08.578Z,90.87
2022-09-12T23:49:10.813Z,91.23
2022-09-12T23:52:13.023Z,91.79
2022-09-12T23:55:15.791Z,91.23
2022-09-12T23:58:18.120Z,91.45
